Time;durP1;ratioP1;P1;durP2;ratioP2;P2;SDS_P1;SDS_P2;PMS_P1;PMS_P2;Temp;Humidity;BMP_temperature;BMP_pressure;BME280_temperature;BME280_humidity;BME280_pressure;Samples;Min_cycle;Max_cycle;Signal;HPM_P1;HPM_P2
2023/12/10 00:03:08;;;;;;;3.97;3.03;;;;;;;-12.43;86.29;101863.31;10435090;28;20042;-63
2023/12/10 00:08:11;;;;;;;10.95;5.47;;;;;;;-12.36;86.23;101854.00;10444649;28;20037;-64
2023/12/10 00:13:13;;;;;;;7.60;3.90;;;;;;;-12.44;85.51;101840.47;10429024;28;20030;-64
2023/12/10 00:18:16;;;;;;;11.88;5.75;;;;;;;-12.43;85.93;101850.09;10458169;28;20045;-63
2023/12/10 00:23:19;;;;;;;7.75;4.28;;;;;;;-12.46;85.19;101847.66;10443817;28;20033;-63
2023/12/10 00:28:21;;;;;;;10.35;4.63;;;;;;;-12.44;86.02;101830.75;10439497;28;20417;-64
2023/12/10 00:33:24;;;;;;;6.43;3.40;;;;;;;-12.42;85.11;101820.06;10442479;28;20037;-64
2023/12/10 00:38:27;;;;;;;10.75;5.63;;;;;;;-12.45;85.24;101817.63;10442551;28;20045;-63
2023/12/10 00:43:31;;;;;;;11.02;5.25;;;;;;;-12.37;86.17;101818.78;10442998;28;20045;-63
2023/12/10 00:48:34;;;;;;;10.48;4.97;;;;;;;-12.37;86.53;101828.50;10440269;28;20041;-63
2023/12/10 00:53:36;;;;;;;14.63;8.00;;;;;;;-12.38;85.90;101814.44;10453134;28;20042;-62
2023/12/10 00:58:39;;;;;;;15.25;7.75;;;;;;;-12.42;85.18;101802.41;10439838;28;20056;-63
2023/12/10 01:03:42;;;;;;;15.45;7.35;;;;;;;-12.39;85.95;101793.41;10438786;28;20037;-63
2023/12/10 01:08:44;;;;;;;14.70;6.95;;;;;;;-12.35;85.86;101800.16;10443622;28;20491;-62
2023/12/10 01:13:47;;;;;;;14.73;8.25;;;;;;;-12.35;85.33;101792.22;10456474;28;20056;-62
2023/12/10 01:18:49;;;;;;;12.70;7.10;;;;;;;-12.28;85.79;101806.75;10440217;28;20052;-63
2023/12/10 01:23:54;;;;;;;13.30;7.15;;;;;;;-12.29;85.33;101787.38;10442307;28;20041;-63
2023/12/10 01:28:57;;;;;;;15.52;7.68;;;;;;;-12.37;84.71;101791.50;10439416;28;20060;-63
2023/12/10 01:33:59;;;;;;;15.27;9.27;;;;;;;-12.36;84.60;101806.41;10441720;28;20048;-63
2023/12/10 01:39:03;;;;;;;13.70;7.75;;;;;;;-12.36;85.04;101778.16;10440452;28;20729;-63
2023/12/10 01:44:05;;;;;;;13.40;7.70;;;;;;;-12.30;85.56;101787.50;10436254;28;20053;-64
2023/12/10 01:49:09;;;;;;;14.25;7.35;;;;;;;-12.35;85.41;101781.66;10438194;28;20041;-63
2023/12/10 01:54:23;;;;;;;13.75;7.35;;;;;;;-12.23;84.53;101781.66;10435689;28;20052;-63
2023/12/10 01:59:25;;;;;;;16.23;9.18;;;;;;;-12.23;84.22;101788.75;10438757;28;20045;-63
2023/12/10 02:04:28;;;;;;;14.23;7.43;;;;;;;-12.26;83.98;101779.22;10435952;28;20531;-63
2023/12/10 02:09:31;;;;;;;13.10;7.60;;;;;;;-12.29;84.24;101778.59;10437179;28;20551;-63
2023/12/10 02:14:33;;;;;;;11.15;6.90;;;;;;;-12.28;83.82;101765.28;10437318;28;20040;-63
2023/12/10 02:19:36;;;;;;;15.00;7.57;;;;;;;-12.26;83.94;101760.72;10438035;28;20038;-64
2023/12/10 02:24:47;;;;;;;12.27;7.20;;;;;;;-12.29;83.47;101770.66;10439873;28;20041;-63
2023/12/10 02:29:49;;;;;;;13.95;6.80;;;;;;;-12.24;83.58;101776.47;10437524;28;20038;-63
2023/12/10 02:34:51;;;;;;;13.35;7.85;;;;;;;-12.24;83.50;101781.78;10425907;28;20045;-63
2023/12/10 02:39:54;;;;;;;14.43;7.35;;;;;;;-12.29;83.41;101782.09;10440391;28;20041;-63
2023/12/10 02:44:56;;;;;;;11.63;6.95;;;;;;;-12.31;84.90;101778.72;10441936;28;20061;-63
2023/12/10 02:49:58;;;;;;;11.48;6.13;;;;;;;-12.26;85.00;101781.03;10446849;28;20422;-63
2023/12/10 02:55:01;;;;;;;13.82;7.50;;;;;;;-12.24;84.89;101772.03;10448163;28;20038;-64
2023/12/10 03:00:07;;;;;;;12.50;6.93;;;;;;;-12.25;84.70;101775.63;10447593;28;20045;-62
2023/12/10 03:05:10;;;;;;;12.65;8.05;;;;;;;-12.27;85.16;101776.69;10447149;28;20045;-63
2023/12/10 03:10:13;;;;;;;14.15;8.18;;;;;;;-12.24;84.98;101765.91;10444083;28;20029;-62
2023/12/10 03:15:16;;;;;;;13.23;7.38;;;;;;;-12.33;84.52;101767.38;10447525;28;20416;-62
2023/12/10 03:20:18;;;;;;;12.75;7.47;;;;;;;-12.35;84.42;101753.41;10446119;28;20040;-64
2023/12/10 03:25:21;;;;;;;12.95;8.15;;;;;;;-12.35;84.56;101749.91;10446853;28;20037;-63
2023/12/10 03:30:24;;;;;;;11.98;6.78;;;;;;;-12.41;84.96;101758.28;10450445;28;20040;-63
2023/12/10 03:35:27;;;;;;;11.25;5.93;;;;;;;-12.35;84.29;101752.56;10449142;28;20051;-62
2023/12/10 03:40:29;;;;;;;13.05;7.53;;;;;;;-12.37;84.11;101746.53;10445247;28;20044;-63
2023/12/10 03:45:32;;;;;;;13.57;7.78;;;;;;;-12.34;84.33;101748.97;10442474;28;20068;-63
2023/12/10 03:50:36;;;;;;;13.32;8.40;;;;;;;-12.45;84.53;101751.53;10443066;28;20049;-63
2023/12/10 03:55:38;;;;;;;11.93;6.60;;;;;;;-12.43;84.38;101745.19;10443975;28;20037;-63
2023/12/10 04:00:41;;;;;;;11.52;7.57;;;;;;;-12.42;84.44;101751.31;10465138;28;20044;-63
2023/12/10 04:05:44;;;;;;;11.35;7.57;;;;;;;-12.49;84.32;101749.09;10480332;28;20033;-63
2023/12/10 04:10:47;;;;;;;12.95;7.38;;;;;;;-12.40;84.06;101736.19;10441978;28;20037;-62
2023/12/10 04:15:49;;;;;;;12.65;5.78;;;;;;;-12.42;83.91;101744.22;10445478;28;20048;-62
2023/12/10 04:20:52;;;;;;;11.02;7.25;;;;;;;-12.39;84.45;101745.81;10424682;28;20457;-63
2023/12/10 04:25:54;;;;;;;12.85;7.47;;;;;;;-12.45;84.27;101740.94;10426721;28;20056;-63
2023/12/10 04:30:57;;;;;;;9.95;6.35;;;;;;;-12.51;83.82;101729.81;10440193;28;20029;-63
2023/12/10 04:36:00;;;;;;;11.20;6.22;;;;;;;-12.56;83.11;101723.16;10459264;28;20049;-63
2023/12/10 04:41:03;;;;;;;11.73;7.20;;;;;;;-12.46;84.22;101740.09;10439216;28;20038;-62
2023/12/10 04:46:06;;;;;;;11.77;7.22;;;;;;;-12.50;83.52;101736.81;10441086;28;20041;-63
2023/12/10 04:51:09;;;;;;;10.70;6.10;;;;;;;-12.54;84.19;101729.19;10460579;28;20520;-63
2023/12/10 04:56:12;;;;;;;15.05;6.75;;;;;;;-12.51;83.31;101728.97;10427615;28;20048;-63
2023/12/10 05:01:14;;;;;;;10.07;5.63;;;;;;;-12.49;83.50;101719.16;10437774;28;20045;-63
2023/12/10 05:06:17;;;;;;;11.77;6.70;;;;;;;-12.52;84.10;101722.84;10435613;28;20033;-62
2023/12/10 05:11:19;;;;;;;11.43;6.00;;;;;;;-12.50;84.16;101720.94;10441128;28;20040;-63
2023/12/10 05:16:22;;;;;;;13.80;7.03;;;;;;;-12.49;83.25;101704.16;10434412;28;20041;-63
2023/12/10 05:21:25;;;;;;;11.88;6.38;;;;;;;-12.51;84.03;101710.47;10442201;28;20524;-63
2023/12/10 05:26:28;;;;;;;10.70;6.13;;;;;;;-12.50;83.99;101704.22;10426043;28;20064;-63
2023/12/10 05:31:30;;;;;;;12.27;6.70;;;;;;;-12.46;84.88;101704.88;10440161;28;20153;-62
2023/12/10 05:36:32;;;;;;;11.27;6.47;;;;;;;-12.51;84.74;101703.38;10439196;28;20036;-63
2023/12/10 05:41:35;;;;;;;9.68;5.30;;;;;;;-12.48;84.09;101708.47;10442485;28;20044;-64
2023/12/10 05:46:37;;;;;;;12.07;7.25;;;;;;;-12.52;84.83;101698.22;10434994;28;20060;-63
2023/12/10 05:51:39;;;;;;;14.35;7.15;;;;;;;-12.54;84.27;101706.25;10436752;28;20041;-63
2023/12/10 05:56:43;;;;;;;13.05;7.90;;;;;;;-12.51;84.37;101707.81;10431174;28;20037;-63
2023/12/10 06:01:45;;;;;;;12.55;7.40;;;;;;;-12.57;84.73;101709.09;10438156;28;20409;-64
2023/12/10 06:06:47;;;;;;;12.10;6.68;;;;;;;-12.57;84.75;101701.19;10439659;28;20041;-64
2023/12/10 06:11:51;;;;;;;11.80;7.43;;;;;;;-12.56;84.75;101707.31;10437190;28;20034;-63
2023/12/10 06:16:54;;;;;;;12.73;5.40;;;;;;;-12.52;84.37;101714.06;10436863;28;20037;-63
2023/12/10 06:21:56;;;;;;;12.68;7.10;;;;;;;-12.53;83.94;101718.50;10416331;28;20037;-63
2023/12/10 06:26:59;;;;;;;11.50;5.82;;;;;;;-12.55;83.95;101720.41;10441382;28;20041;-63
2023/12/10 06:32:02;;;;;;;11.68;6.63;;;;;;;-12.44;83.46;101714.41;10444969;28;20034;-62
2023/12/10 06:37:04;;;;;;;12.70;7.35;;;;;;;-12.54;83.28;101716.81;10447211;28;20037;-64
2023/12/10 06:42:07;;;;;;;11.70;6.53;;;;;;;-12.54;83.14;101732.69;10448224;28;20041;-65
2023/12/10 06:47:09;;;;;;;12.20;6.80;;;;;;;-12.52;83.85;101720.19;10449443;28;20055;-63
2023/12/10 06:52:11;;;;;;;9.43;5.25;;;;;;;-12.56;83.74;101707.31;10417723;28;20038;-62
2023/12/10 06:57:14;;;;;;;11.25;6.03;;;;;;;-12.51;83.08;101711.31;10447264;28;20046;-62
2023/12/10 07:02:16;;;;;;;10.63;6.18;;;;;;;-12.42;83.09;101714.28;10410383;28;20048;-65
2023/12/10 07:07:19;;;;;;;11.40;6.18;;;;;;;-12.48;83.62;101715.56;10445030;28;20041;-63
2023/12/10 07:12:22;;;;;;;10.40;5.95;;;;;;;-12.45;84.20;101718.00;10446076;28;20036;-63
2023/12/10 07:17:25;;;;;;;12.25;6.10;;;;;;;-12.53;83.56;101733.53;10426234;28;20045;-64
2023/12/10 07:22:27;;;;;;;12.88;6.78;;;;;;;-12.56;84.51;101725.81;10437041;28;20053;-64
2023/12/10 07:27:31;;;;;;;11.25;6.55;;;;;;;-12.55;84.23;101724.84;10429871;28;20052;-64
2023/12/10 07:32:34;;;;;;;11.57;5.88;;;;;;;-12.55;84.95;101715.13;10437248;28;20041;-63
2023/12/10 07:37:37;;;;;;;12.65;8.15;;;;;;;-12.55;83.92;101731.00;10425223;28;20041;-63
2023/12/10 07:42:39;;;;;;;10.52;5.95;;;;;;;-12.49;85.07;101730.59;10435491;28;20108;-64
2023/12/10 07:47:42;;;;;;;11.95;6.70;;;;;;;-12.49;84.32;101712.09;10440730;28;20041;-63
2023/12/10 07:52:44;;;;;;;12.10;7.72;;;;;;;-12.46;84.51;101724.25;10445011;28;20044;-64
2023/12/10 07:57:46;;;;;;;13.73;7.13;;;;;;;-12.29;84.49;101713.34;10444887;28;20139;-64
2023/12/10 08:02:49;;;;;;;15.00;8.02;;;;;;;-12.36;84.20;101716.50;10428550;28;20040;-63
2023/12/10 08:07:52;;;;;;;14.75;6.93;;;;;;;-12.39;84.72;101714.06;10442231;28;20029;-64
2023/12/10 08:12:54;;;;;;;12.93;8.05;;;;;;;-12.38;84.07;101723.69;10433331;28;20042;-62
2023/12/10 08:17:57;;;;;;;15.13;7.78;;;;;;;-12.42;83.74;101717.78;10414936;28;20041;-63
2023/12/10 08:23:00;;;;;;;15.23;7.10;;;;;;;-12.39;83.69;101714.06;10432682;28;20080;-64
2023/12/10 08:28:03;;;;;;;11.15;6.47;;;;;;;-12.25;83.72;101711.31;10421061;28;20586;-64
2023/12/10 08:33:05;;;;;;;14.90;7.47;;;;;;;-12.05;82.82;101707.25;10443961;28;20041;-63
2023/12/10 08:38:07;;;;;;;13.23;6.72;;;;;;;-12.20;82.17;101711.81;10441807;28;20045;-63
2023/12/10 08:43:10;;;;;;;13.13;7.13;;;;;;;-12.19;82.33;101710.88;10443436;28;20049;-64
2023/12/10 08:48:12;;;;;;;15.35;6.72;;;;;;;-12.12;82.59;101695.44;10416279;28;20045;-62
2023/12/10 08:53:14;;;;;;;14.55;7.43;;;;;;;-12.26;81.36;101701.69;10416813;28;20060;-62
2023/12/10 08:58:17;;;;;;;14.02;7.47;;;;;;;-12.25;82.16;101706.03;10443095;28;20044;-63
2023/12/10 09:03:20;;;;;;;12.80;7.10;;;;;;;-12.31;81.41;101696.72;10434010;28;20417;-64
2023/12/10 09:08:22;;;;;;;13.05;6.15;;;;;;;-12.17;81.91;101703.66;10410839;28;20048;-63
2023/12/10 09:13:25;;;;;;;15.15;6.95;;;;;;;-12.24;81.76;101703.25;10437605;28;20505;-64
2023/12/10 09:18:27;;;;;;;13.85;7.53;;;;;;;-12.22;82.08;101708.44;10402945;28;20037;-63
2023/12/10 09:23:29;;;;;;;14.32;7.35;;;;;;;-12.34;81.41;101691.63;10429448;28;20045;-64
2023/12/10 09:28:32;;;;;;;13.40;6.63;;;;;;;-12.17;81.89;101693.94;10440915;28;20044;-63
2023/12/10 09:33:34;;;;;;;12.77;6.20;;;;;;;-12.25;81.59;101688.34;10430387;28;20049;-63
2023/12/10 09:38:37;;;;;;;16.30;7.88;;;;;;;-12.19;81.97;101689.72;10439755;28;20044;-62
2023/12/10 09:43:39;;;;;;;13.52;7.72;;;;;;;-12.19;82.02;101685.25;10439553;28;20048;-62
2023/12/10 09:48:44;;;;;;;13.50;6.90;;;;;;;-12.19;82.06;101673.84;10437241;28;20049;-63
2023/12/10 09:53:47;;;;;;;15.18;7.43;;;;;;;-12.05;81.80;101676.34;10437498;28;20532;-63
2023/12/10 09:58:49;;;;;;;12.90;7.63;;;;;;;-12.21;81.59;101670.47;10440808;28;20493;-63
2023/12/10 10:03:52;;;;;;;15.07;7.63;;;;;;;-12.24;82.11;101663.59;10438592;28;20524;-62
2023/12/10 10:08:54;;;;;;;16.38;7.90;;;;;;;-12.21;81.09;101652.78;10435948;28;20037;-63
2023/12/10 10:13:57;;;;;;;14.98;7.72;;;;;;;-12.27;81.73;101658.53;10438902;28;20497;-63
2023/12/10 10:19:00;;;;;;;17.52;8.57;;;;;;;-12.27;81.59;101660.31;10428207;28;20041;-64
2023/12/10 10:24:03;;;;;;;16.73;7.85;;;;;;;-12.17;81.19;101656.06;10435429;28;20038;-63
2023/12/10 10:29:07;;;;;;;13.73;7.60;;;;;;;-12.05;81.11;101657.84;10429457;28;20495;-64
2023/12/10 10:34:09;;;;;;;15.90;7.47;;;;;;;-12.13;81.00;101641.69;10422890;28;20060;-64
2023/12/10 10:39:15;;;;;;;13.20;7.43;;;;;;;-12.20;81.52;101657.13;10420841;28;20055;-66
2023/12/10 10:44:18;;;;;;;15.20;8.10;;;;;;;-12.11;81.20;101650.34;10428671;28;20056;-65
2023/12/10 10:49:20;;;;;;;15.48;7.40;;;;;;;-12.28;81.54;101648.91;10423830;28;20037;-65
2023/12/10 10:54:23;;;;;;;16.58;8.65;;;;;;;-12.21;81.43;101646.66;10435771;28;20525;-67
2023/12/10 10:59:33;;;;;;;16.95;7.90;;;;;;;-12.25;81.64;101651.31;10431699;28;20037;-66
2023/12/10 11:04:38;;;;;;;15.57;8.10;;;;;;;-12.20;81.30;101656.28;10438159;28;20073;-65
2023/12/10 11:10:07;;;;;;;19.55;8.13;;;;;;;-12.15;82.01;101659.44;10443252;28;20033;-65
2023/12/10 11:15:16;;;;;;;16.55;8.18;;;;;;;-12.19;81.43;101657.97;10443507;28;20041;-64
2023/12/10 11:20:30;;;;;;;;;;;;;;;-12.10;81.13;101659.97;10446723;28;20290;-65
2023/12/10 11:25:33;;;;;;;14.10;6.43;;;;;;;-12.13;81.59;101648.78;10438848;28;19924;-64
2023/12/10 11:30:36;;;;;;;17.80;8.63;;;;;;;-12.29;81.36;101655.16;10441314;28;20044;-64
2023/12/10 11:35:39;;;;;;;15.82;7.90;;;;;;;-12.19;81.96;101655.31;10439410;28;20042;-63
2023/12/10 11:40:42;;;;;;;19.25;8.43;;;;;;;-11.98;81.26;101668.81;10439219;28;20029;-62
2023/12/10 11:45:44;;;;;;;13.05;6.82;;;;;;;-12.14;81.25;101663.78;10441298;28;20087;-63
2023/12/10 11:50:48;;;;;;;16.33;8.52;;;;;;;-12.17;81.80;101656.91;10436366;28;20628;-63
2023/12/10 11:55:52;;;;;;;18.27;9.23;;;;;;;-12.12;82.35;101653.94;10421215;28;20054;-65
2023/12/10 12:00:56;;;;;;;15.77;7.90;;;;;;;-12.21;82.40;101654.59;10438189;28;20060;-66
2023/12/10 12:05:59;;;;;;;17.27;8.40;;;;;;;-12.30;82.15;101657.91;10443226;28;20037;-62
2023/12/10 12:11:01;;;;;;;18.63;8.10;;;;;;;-12.06;82.68;101652.66;10442912;28;20043;-63
2023/12/10 12:16:05;;;;;;;19.80;9.27;;;;;;;-12.26;82.15;101646.16;10441238;28;20041;-63
2023/12/10 12:21:07;;;;;;;18.33;7.50;;;;;;;-12.37;82.83;101646.91;10439939;28;20041;-63
2023/12/10 12:26:10;;;;;;;16.67;8.02;;;;;;;-12.44;82.71;101631.59;10441318;28;20045;-63
2023/12/10 12:31:12;;;;;;;13.93;7.03;;;;;;;-12.36;82.74;101640.66;10440553;28;20044;-63
2023/12/10 12:36:15;;;;;;;16.85;8.70;;;;;;;-12.42;82.66;101635.81;10441056;28;20068;-64
2023/12/10 12:41:18;;;;;;;18.85;9.05;;;;;;;-12.41;83.62;101616.34;10441280;28;20034;-63
2023/12/10 12:46:22;;;;;;;19.13;8.75;;;;;;;-12.37;83.70;101622.25;10440497;28;20064;-63
2023/12/10 12:51:24;;;;;;;18.80;9.02;;;;;;;-12.43;83.07;101625.34;10439297;28;20037;-64
2023/12/10 12:56:27;;;;;;;16.50;8.18;;;;;;;-12.51;83.09;101637.28;10440509;28;20037;-63
2023/12/10 13:01:30;;;;;;;16.90;7.53;;;;;;;-12.46;83.67;101628.22;10436276;28;20049;-64
2023/12/10 13:06:32;;;;;;;16.85;8.70;;;;;;;-12.49;83.77;101630.13;10442109;28;20476;-64
2023/12/10 13:11:34;;;;;;;15.77;7.50;;;;;;;-12.44;83.49;101631.59;10438023;28;20497;-64
2023/12/10 13:16:43;;;;;;;20.70;9.93;;;;;;;-12.57;84.01;101650.94;10434611;28;20763;-65
2023/12/10 13:21:47;;;;;;;16.60;7.55;;;;;;;-12.67;84.18;101646.41;10436090;28;20558;-64
2023/12/10 13:26:50;;;;;;;17.75;8.30;;;;;;;-12.65;83.97;101655.09;10434431;28;20038;-65
2023/12/10 13:31:53;;;;;;;16.17;8.15;;;;;;;-12.69;84.78;101651.78;10434956;28;20033;-63
2023/12/10 13:36:55;;;;;;;18.75;9.65;;;;;;;-12.67;84.30;101646.41;10439813;28;20053;-63
2023/12/10 13:41:57;;;;;;;19.73;10.10;;;;;;;-12.68;84.46;101658.78;10434476;28;20033;-63
2023/12/10 13:47:00;;;;;;;19.92;9.05;;;;;;;-12.71;84.67;101644.94;10426791;28;20050;-63
2023/12/10 13:52:03;;;;;;;13.63;5.60;;;;;;;-12.73;84.27;101642.41;10434033;28;20037;-63
2023/12/10 13:57:05;;;;;;;21.40;9.00;;;;;;;-12.76;84.81;101641.78;10439497;28;20445;-64
2023/12/10 14:02:08;;;;;;;18.83;9.18;;;;;;;-12.75;84.77;101643.47;10433815;28;20041;-63
2023/12/10 14:07:11;;;;;;;17.83;8.18;;;;;;;-12.73;84.51;101638.91;10428167;28;20045;-63
2023/12/10 14:12:17;;;;;;;18.35;9.48;;;;;;;-12.75;84.55;101639.03;10431668;28;20144;-63
2023/12/10 14:17:19;;;;;;;12.85;6.15;;;;;;;-12.78;84.56;101639.25;10429967;28;20457;-64
2023/12/10 14:22:23;;;;;;;20.73;8.85;;;;;;;-12.74;84.66;101651.28;10430093;28;20049;-64
2023/12/10 14:27:25;;;;;;;19.35;9.75;;;;;;;-12.77;84.41;101672.63;10435175;28;20045;-62
2023/12/10 14:32:28;;;;;;;19.83;8.43;;;;;;;-12.81;85.40;101658.78;10422744;28;20037;-63
2023/12/10 14:37:30;;;;;;;16.35;8.75;;;;;;;-12.75;84.54;101649.59;10430248;28;20091;-62
2023/12/10 14:42:33;;;;;;;17.65;8.70;;;;;;;-12.75;84.51;101657.50;10438009;28;20620;-62
2023/12/10 14:47:35;;;;;;;13.90;7.53;;;;;;;-12.76;84.89;101653.19;10439633;28;20041;-62
2023/12/10 14:52:38;;;;;;;18.95;9.15;;;;;;;-12.70;84.84;101662.47;10435803;28;20416;-63
2023/12/10 14:57:42;;;;;;;17.33;8.70;;;;;;;-12.77;85.14;101651.50;10439048;28;20040;-65
2023/12/10 15:02:44;;;;;;;19.15;7.80;;;;;;;-12.74;85.43;101642.50;10437153;28;20044;-63
2023/12/10 15:07:49;;;;;;;21.73;9.65;;;;;;;-12.72;84.57;101653.81;10447663;28;20408;-63
2023/12/10 15:12:51;;;;;;;19.70;7.65;;;;;;;-12.69;84.60;101657.09;10450183;28;20037;-63
2023/12/10 15:17:56;;;;;;;19.30;8.73;;;;;;;-12.73;85.22;101652.13;10441501;28;20037;-64
2023/12/10 15:22:58;;;;;;;22.13;9.82;;;;;;;-12.67;85.40;101668.38;10438578;28;20044;-62
2023/12/10 15:28:01;;;;;;;18.25;8.30;;;;;;;-12.57;85.01;101663.31;10443667;28;20056;-63
2023/12/10 15:33:04;;;;;;;21.33;8.52;;;;;;;-12.54;84.83;101663.09;10427127;28;20034;-64
2023/12/10 15:38:06;;;;;;;16.70;8.40;;;;;;;-12.57;85.04;101660.69;10431110;28;20041;-64
2023/12/10 15:43:09;;;;;;;18.25;7.93;;;;;;;-12.59;85.00;101650.22;10440411;28;20049;-63
2023/12/10 15:48:11;;;;;;;18.23;9.10;;;;;;;-12.55;84.70;101659.63;10434127;28;20029;-65
2023/12/10 15:53:13;;;;;;;18.40;8.30;;;;;;;-12.51;85.27;101653.16;10435624;28;20037;-64
2023/12/10 15:58:16;;;;;;;18.25;9.07;;;;;;;-12.49;85.10;101656.56;10444953;28;20045;-64
2023/12/10 16:03:22;;;;;;;19.80;8.90;;;;;;;-12.54;85.16;101645.44;10439527;28;20042;-65
2023/12/10 16:08:24;;;;;;;17.85;9.13;;;;;;;-12.35;84.66;101652.91;10438477;28;20066;-64
2023/12/10 16:13:27;;;;;;;20.60;9.07;;;;;;;-12.46;84.42;101646.72;10429946;28;20513;-64
2023/12/10 16:18:30;;;;;;;22.05;9.77;;;;;;;-12.46;84.57;101647.56;10437933;28;20041;-65
2023/12/10 16:23:32;;;;;;;18.42;8.48;;;;;;;-12.51;84.39;101639.94;10431924;28;20065;-63
2023/12/10 16:28:34;;;;;;;18.30;9.38;;;;;;;-12.44;85.26;101628.94;10439283;28;20037;-64
2023/12/10 16:33:38;;;;;;;19.80;8.90;;;;;;;-12.36;84.97;101613.38;10441327;28;20040;-65
2023/12/10 16:38:41;;;;;;;20.98;9.25;;;;;;;-12.42;84.23;101632.31;10438449;28;20045;-65
2023/12/10 16:43:43;;;;;;;22.65;9.98;;;;;;;-12.49;84.62;101613.41;10429392;28;20037;-66
2023/12/10 16:48:46;;;;;;;23.88;10.10;;;;;;;-12.49;85.44;101608.97;10433818;28;20409;-64
2023/12/10 16:53:53;;;;;;;19.70;9.52;;;;;;;-12.49;85.43;101603.69;10435194;28;20099;-67
2023/12/10 16:58:56;;;;;;;18.67;9.52;;;;;;;-12.47;85.71;101606.22;10443525;28;20040;-66
2023/12/10 17:03:58;;;;;;;22.10;8.60;;;;;;;-12.44;85.53;101611.28;10437190;28;20029;-67
2023/12/10 17:09:01;;;;;;;17.60;9.00;;;;;;;-12.38;85.13;101610.84;10438447;28;20041;-67
2023/12/10 17:14:04;;;;;;;23.45;9.00;;;;;;;-12.41;85.28;101607.56;10438688;28;20037;-65
2023/12/10 17:19:07;;;;;;;17.52;7.63;;;;;;;-12.44;85.26;101599.88;10432410;28;20428;-65
2023/12/10 17:24:09;;;;;;;20.40;8.50;;;;;;;-12.39;85.48;101603.00;10436264;28;20037;-65
2023/12/10 17:29:12;;;;;;;21.17;9.75;;;;;;;-12.41;85.63;101594.34;10436598;28;20072;-65
2023/12/10 17:34:15;;;;;;;13.88;6.25;;;;;;;-12.54;85.59;101589.09;10434564;28;20048;-64
2023/12/10 17:39:18;;;;;;;17.67;8.95;;;;;;;-12.58;85.85;101587.63;10433475;28;20056;-64
2023/12/10 17:44:20;;;;;;;17.98;9.48;;;;;;;-12.61;85.78;101587.84;10430258;28;20045;-65
2023/12/10 17:49:27;;;;;;;16.98;8.40;;;;;;;-12.58;86.50;101580.53;10429297;28;20798;-66
2023/12/10 17:54:30;;;;;;;20.55;8.55;;;;;;;-12.57;86.23;101581.38;10442193;28;20523;-66
2023/12/10 17:59:33;;;;;;;20.65;9.63;;;;;;;-12.67;86.06;101578.53;10442315;28;20036;-65
2023/12/10 18:04:35;;;;;;;20.67;9.27;;;;;;;-12.69;85.96;101587.53;10451471;28;20048;-63
2023/12/10 18:09:38;;;;;;;19.67;8.77;;;;;;;-12.60;86.39;101585.09;10434863;28;20532;-63
2023/12/10 18:14:41;;;;;;;24.42;9.60;;;;;;;-12.60;86.16;101587.72;10435356;28;20042;-63
2023/12/10 18:19:43;;;;;;;20.92;8.57;;;;;;;-12.58;86.35;101593.75;10444365;28;20033;-64
2023/12/10 18:24:46;;;;;;;20.98;9.15;;;;;;;-12.57;86.42;101594.59;10439458;28;20041;-63
2023/12/10 18:29:49;;;;;;;18.38;7.82;;;;;;;-12.56;87.19;101589.19;10441888;28;20048;-64
2023/12/10 18:34:51;;;;;;;18.65;8.93;;;;;;;-12.49;86.84;101587.81;10445286;28;20041;-64
2023/12/10 18:39:53;;;;;;;21.90;10.38;;;;;;;-12.43;86.46;101580.41;10454066;28;20072;-63
2023/12/10 18:44:56;;;;;;;19.85;8.77;;;;;;;-12.40;87.29;101572.25;10444077;28;20069;-64
2023/12/10 18:49:58;;;;;;;25.60;10.00;;;;;;;-12.30;86.22;101579.41;10490101;28;20400;-65
2023/12/10 18:55:01;;;;;;;22.77;10.02;;;;;;;-12.26;87.12;101578.22;10448865;28;20530;-64
2023/12/10 19:00:05;;;;;;;26.88;11.18;;;;;;;-12.28;86.89;101579.31;10447134;28;20045;-63
2023/12/10 19:05:08;;;;;;;18.23;9.32;;;;;;;-12.21;86.64;101580.53;10450568;28;20045;-63
2023/12/10 19:10:10;;;;;;;22.63;9.52;;;;;;;-12.19;86.20;101573.31;10440048;28;20048;-62
2023/12/10 19:15:13;;;;;;;23.27;9.85;;;;;;;-12.11;86.57;101576.28;10437348;28;20033;-63
2023/12/10 19:20:23;;;;;;;17.38;8.77;;;;;;;-12.05;87.01;101591.69;10435505;28;20048;-62
2023/12/10 19:25:26;;;;;;;20.33;9.70;;;;;;;-11.98;86.64;101582.31;10440149;28;20038;-62
2023/12/10 19:30:29;;;;;;;22.08;9.35;;;;;;;-12.02;86.87;101580.88;10439348;28;20044;-64
2023/12/10 19:35:31;;;;;;;20.33;8.82;;;;;;;-11.96;87.00;101572.50;10438188;28;20048;-65
2023/12/10 19:40:33;;;;;;;20.90;9.27;;;;;;;-11.90;86.11;101579.13;10442829;28;20068;-63
2023/12/10 19:45:36;;;;;;;19.17;9.38;;;;;;;-11.88;86.01;101582.50;10439521;28;20597;-64
2023/12/10 19:50:39;;;;;;;18.90;8.90;;;;;;;-11.89;86.36;101573.72;10433805;28;20033;-65
2023/12/10 19:55:44;;;;;;;18.48;9.57;;;;;;;-11.84;86.95;101575.19;10440473;28;20390;-63
2023/12/10 20:00:49;;;;;;;18.02;8.65;;;;;;;-11.77;87.40;101557.88;10435809;28;20040;-63
2023/12/10 20:05:56;;;;;;;17.77;8.07;;;;;;;-11.72;87.25;101551.25;10441023;28;20041;-62
2023/12/10 20:10:59;;;;;;;22.35;9.20;;;;;;;-11.72;87.40;101572.44;10442524;28;20041;-62
2023/12/10 20:16:10;;;;;;;22.35;9.48;;;;;;;-11.67;87.31;101564.16;10440156;28;20057;-63
2023/12/10 20:21:13;;;;;;;18.00;8.13;;;;;;;-11.60;87.81;101554.81;10446493;28;20033;-63
2023/12/10 20:26:24;;;;;;;18.45;8.82;;;;;;;-11.63;87.08;101557.66;10440629;28;20044;-62
2023/12/10 20:31:32;;;;;;;19.88;9.10;;;;;;;-11.55;86.86;101544.69;10436668;28;20037;-63
2023/12/10 20:36:34;;;;;;;21.67;9.95;;;;;;;-11.56;86.99;101553.59;10441102;28;20072;-64
2023/12/10 20:41:37;;;;;;;20.35;9.00;;;;;;;-11.63;87.09;101533.84;10437056;28;20041;-62
2023/12/10 20:46:40;;;;;;;18.45;9.00;;;;;;;-11.68;87.26;101542.13;10441146;28;20064;-64
2023/12/10 20:51:42;;;;;;;22.05;8.55;;;;;;;-11.66;87.07;101555.25;10443498;28;20045;-64
2023/12/10 20:56:44;;;;;;;20.15;9.15;;;;;;;-11.55;87.84;101552.66;10437185;28;20113;-64
2023/12/10 21:01:47;;;;;;;23.17;10.00;;;;;;;-11.49;87.88;101557.47;10433364;28;20052;-64
2023/12/10 21:06:49;;;;;;;20.02;8.55;;;;;;;-11.52;87.47;101552.41;10438175;28;20029;-65
2023/12/10 21:11:53;;;;;;;17.92;8.82;;;;;;;-11.54;87.30;101562.28;10437079;28;20732;-63
2023/12/10 21:16:56;;;;;;;19.38;9.60;;;;;;;-11.47;86.76;101550.25;10433608;28;20045;-64
2023/12/10 21:21:58;;;;;;;16.45;8.27;;;;;;;-11.44;86.95;101541.25;10433786;28;20034;-62
2023/12/10 21:27:00;;;;;;;19.15;8.70;;;;;;;-11.43;87.52;101546.44;10434779;28;20037;-64
2023/12/10 21:32:03;;;;;;;19.52;9.10;;;;;;;-11.48;86.95;101532.66;10433772;28;20045;-64
2023/12/10 21:37:07;;;;;;;16.35;8.27;;;;;;;-11.51;87.16;101521.47;10437393;28;20099;-62
2023/12/10 21:42:11;;;;;;;21.38;9.00;;;;;;;-11.53;87.20;101523.41;10426045;28;20076;-65
2023/12/10 21:47:13;;;;;;;18.90;8.02;;;;;;;-11.57;87.31;101522.78;10432284;28;20141;-63
2023/12/10 21:52:15;;;;;;;9.45;4.18;;;;;;;-11.61;87.02;101532.78;10427788;28;20034;-64
2023/12/10 21:57:18;;;;;;;19.13;6.82;;;;;;;-10.99;88.47;101532.38;10418037;28;20804;-64
2023/12/10 22:02:21;;;;;;;17.38;7.03;;;;;;;-11.44;87.69;101512.13;10435100;28;20041;-64
2023/12/10 22:07:23;;;;;;;17.27;7.38;;;;;;;-11.61;87.23;101500.16;10432006;28;20595;-63
2023/12/10 22:12:26;;;;;;;9.85;4.63;;;;;;;-11.73;87.26;101495.81;10436733;28;20038;-64
2023/12/10 22:17:29;;;;;;;17.77;7.45;;;;;;;-11.75;87.94;101505.66;10431819;28;20038;-64
2023/12/10 22:22:32;;;;;;;16.25;6.47;;;;;;;-11.83;87.82;101506.25;10428005;28;20424;-63
2023/12/10 22:27:34;;;;;;;18.02;8.02;;;;;;;-11.84;88.20;101499.28;10435271;28;20524;-65
2023/12/10 22:32:36;;;;;;;10.68;4.88;;;;;;;-11.91;87.83;101488.31;10438153;28;20033;-64
2023/12/10 22:37:40;;;;;;;13.00;6.25;;;;;;;-11.93;88.45;101510.56;10440183;28;20513;-63
2023/12/10 22:42:43;;;;;;;13.35;5.78;;;;;;;-11.98;87.94;101495.00;10425003;28;20041;-65